createdAt,value
2022-12-16T00:05:01.619Z,50.9
2022-12-16T00:10:20.243Z,50.7
2022-12-16T00:15:38.722Z,51.4
2022-12-16T00:20:56.965Z,50.9
2022-12-16T00:26:15.450Z,51.7
2022-12-16T00:31:33.665Z,52
2022-12-16T00:36:52.636Z,52.1
2022-12-16T00:42:10.939Z,51.6
2022-12-16T00:47:29.441Z,52.1
2022-12-16T00:52:47.970Z,51.7
2022-12-16T00:58:06.429Z,51.3
2022-12-16T01:03:25.579Z,51.4
2022-12-16T01:08:43.994Z,51.3
2022-12-16T01:14:02.247Z,51.9
2022-12-16T01:19:20.736Z,52.4
2022-12-16T01:24:38.969Z,51.7
2022-12-16T01:29:57.734Z,51.5
2022-12-16T01:35:56.660Z,52.1
2022-12-16T01:41:15.257Z,51.9
2022-12-16T01:46:33.515Z,51.8
2022-12-16T01:51:55.802Z,52.3
2022-12-16T01:57:14.300Z,52.3
2022-12-16T02:02:33.319Z,51.5
2022-12-16T02:07:52.587Z,52.3
2022-12-16T02:13:11.124Z,51.6
2022-12-16T02:18:29.025Z,52.2
2022-12-16T02:23:46.960Z,51.2
2022-12-16T02:29:05.466Z,51.6
2022-12-16T02:34:23.791Z,52
2022-12-16T02:39:42.009Z,52.8
2022-12-16T02:45:00.252Z,52.8
2022-12-16T02:50:18.418Z,52.4
2022-12-16T02:55:36.936Z,51.5
2022-12-16T03:00:55.602Z,52.4
2022-12-16T03:06:14.194Z,52.4
2022-12-16T03:11:32.675Z,52.4
2022-12-16T03:16:51.492Z,52.8
2022-12-16T03:22:10.111Z,52.1
2022-12-16T03:27:28.879Z,53.2
2022-12-16T03:32:47.381Z,51.7
2022-12-16T03:38:05.860Z,52.9
2022-12-16T03:43:24.607Z,52.1
2022-12-16T03:48:42.852Z,52.8
2022-12-16T03:54:01.598Z,52
2022-12-16T03:59:20.073Z,51.8
2022-12-16T04:04:38.308Z,51.9
2022-12-16T04:09:56.774Z,52.5
2022-12-16T04:15:15.251Z,52.6
2022-12-16T04:20:33.450Z,53.1
2022-12-16T04:25:51.628Z,52.2
2022-12-16T04:31:09.841Z,53.2
2022-12-16T04:36:28.159Z,52.2
2022-12-16T04:41:46.778Z,52
2022-12-16T04:47:05.264Z,52.5
2022-12-16T04:52:24.136Z,52
2022-12-16T04:57:42.401Z,52.4
2022-12-16T05:03:00.612Z,52.4
2022-12-16T05:08:19.148Z,51.4
2022-12-16T05:13:37.792Z,52.2
2022-12-16T05:18:56.005Z,51.9
2022-12-16T05:24:14.507Z,52
2022-12-16T05:29:32.993Z,51.3
2022-12-16T05:34:51.496Z,51.1
2022-12-16T05:40:09.729Z,51.4
2022-12-16T05:45:28.199Z,51.2
2022-12-16T05:50:46.412Z,51.1
2022-12-16T05:56:05.050Z,51.3
2022-12-16T06:01:23.834Z,51.8
2022-12-16T06:06:42.709Z,52
2022-12-16T06:12:01.219Z,51.8
2022-12-16T06:17:19.156Z,51.2
2022-12-16T06:22:37.945Z,51.6
2022-12-16T06:27:56.455Z,50.2
2022-12-16T06:33:14.925Z,51.4
2022-12-16T06:38:33.419Z,51.3
2022-12-16T06:43:51.948Z,51.2
2022-12-16T06:49:09.847Z,51.1
2022-12-16T06:54:28.616Z,51.1
2022-12-16T06:59:47.132Z,50.6
2022-12-16T07:05:07.019Z,51.5
2022-12-16T07:10:25.538Z,50.8
2022-12-16T07:15:44.343Z,50.7
2022-12-16T07:21:02.838Z,50.7
2022-12-16T07:26:21.400Z,51
2022-12-16T07:31:39.898Z,50.9
2022-12-16T07:36:58.162Z,51.1
2022-12-16T07:47:48.335Z,50.6
2022-12-16T07:53:06.861Z,51.1
2022-12-16T07:58:25.332Z,50.5
2022-12-16T08:03:43.860Z,50.8
2022-12-16T08:09:02.473Z,50.8
2022-12-16T08:14:20.973Z,50.7
2022-12-16T08:19:39.837Z,50.7
2022-12-16T08:24:58.053Z,50.1
2022-12-16T08:30:15.983Z,50.3
2022-12-16T08:35:19.182Z,50.9
2022-12-16T08:40:38.077Z,50.8
2022-12-16T08:45:56.786Z,50.5
2022-12-16T08:51:15.167Z,49.9
2022-12-16T08:56:33.458Z,50
2022-12-16T09:01:55.654Z,49.9
2022-12-16T09:07:14.306Z,50.4
2022-12-16T09:12:32.214Z,49.5
2022-12-16T09:17:51.238Z,50.2
2022-12-16T09:23:09.467Z,49.2
2022-12-16T09:28:28.228Z,49.5
2022-12-16T09:33:46.415Z,49.7
2022-12-16T09:39:05.120Z,49.7
2022-12-16T09:44:24.710Z,49
2022-12-16T09:49:43.484Z,48.9
2022-12-16T09:55:02.280Z,49.6
2022-12-16T10:00:20.774Z,48.7
2022-12-16T10:05:38.989Z,49.2
2022-12-16T10:10:57.801Z,48.6
2022-12-16T10:16:16.689Z,49.4
2022-12-16T10:21:35.270Z,49.3
2022-12-16T10:26:54.112Z,48.5
2022-12-16T10:32:12.579Z,49.3
2022-12-16T10:37:31.095Z,48.6
2022-12-16T10:42:49.742Z,48.3
2022-12-16T10:48:08.521Z,49
2022-12-16T10:53:28.044Z,48.7
2022-12-16T10:58:46.838Z,48.8
2022-12-16T11:04:05.621Z,48.2
2022-12-16T11:09:24.092Z,48.2
2022-12-16T11:15:29.573Z,48.9
2022-12-16T11:20:47.705Z,48.3
2022-12-16T11:26:05.912Z,49
2022-12-16T11:31:24.586Z,48.2
2022-12-16T11:36:43.072Z,49
2022-12-16T11:42:01.832Z,48.2
2022-12-16T11:47:20.358Z,48.9
2022-12-16T11:52:38.764Z,49
2022-12-16T11:57:56.706Z,48.9
2022-12-16T12:03:15.527Z,48.7
2022-12-16T12:08:33.503Z,48.6
2022-12-16T12:13:56.275Z,48.9
2022-12-16T12:19:15.049Z,49
2022-12-16T12:24:33.674Z,49
2022-12-16T12:29:52.140Z,48.5
2022-12-16T12:35:11.701Z,48.9
2022-12-16T12:40:30.465Z,48.8
2022-12-16T12:45:48.950Z,48.9
2022-12-16T12:51:07.733Z,48.4
2022-12-16T12:56:25.669Z,48.9
2022-12-16T13:01:44.815Z,49
2022-12-16T13:07:03.674Z,49.1
2022-12-16T13:12:21.865Z,48.6
2022-12-16T13:17:40.657Z,48.8
2022-12-16T13:22:59.169Z,48.4
2022-12-16T13:28:17.727Z,49.3
2022-12-16T13:33:36.739Z,48.6
2022-12-16T13:38:54.995Z,49.3
2022-12-16T13:44:13.195Z,49.1
2022-12-16T13:49:31.699Z,49.3
2022-12-16T13:54:50.525Z,49.5
2022-12-16T14:00:08.746Z,48.8
2022-12-16T14:05:27.579Z,49.6
2022-12-16T14:10:46.089Z,49.3
2022-12-16T14:16:04.487Z,49.2
2022-12-16T14:21:23.263Z,50
2022-12-16T14:26:41.768Z,49
2022-12-16T14:32:00.507Z,48.9
2022-12-16T14:37:24.541Z,49.4
2022-12-16T14:42:43.335Z,49.7
2022-12-16T14:48:02.185Z,48.9
2022-12-16T14:53:20.696Z,49.5
2022-12-16T14:58:39.203Z,48.8
2022-12-16T15:03:58.321Z,48.9
2022-12-16T15:09:16.946Z,48.9
2022-12-16T15:14:35.227Z,48.8
2022-12-16T15:19:55.748Z,49.7
2022-12-16T15:25:15.121Z,48.9
2022-12-16T15:30:33.788Z,49.7
2022-12-16T15:35:52.070Z,49.7
2022-12-16T15:41:10.282Z,48.9
2022-12-16T15:46:28.972Z,49.7
2022-12-16T15:51:47.324Z,49.3
2022-12-16T15:57:06.074Z,50.6
2022-12-16T16:02:25.396Z,50.6
2022-12-16T16:07:44.509Z,50.3
2022-12-16T16:13:05.898Z,50.2
2022-12-16T16:18:24.383Z,50.8
2022-12-16T16:23:43.237Z,49.9
2022-12-16T16:29:02.027Z,50.5
2022-12-16T16:34:20.268Z,49.7
2022-12-16T16:39:22.584Z,50.2
2022-12-16T16:44:40.762Z,50.4
2022-12-16T16:50:00.290Z,50.5
2022-12-16T16:55:18.780Z,49.6
2022-12-16T17:00:37.240Z,50
2022-12-16T17:05:55.781Z,50.4
2022-12-16T17:11:14.276Z,49.6
2022-12-16T17:16:32.929Z,50.1
2022-12-16T17:21:51.621Z,49.5
2022-12-16T17:27:09.822Z,50.2
2022-12-16T17:32:28.293Z,50.2
2022-12-16T17:37:46.529Z,49.3
2022-12-16T17:43:05.267Z,49.3
2022-12-16T17:48:23.732Z,50.1
2022-12-16T17:53:42.246Z,49.5
2022-12-16T17:59:05.686Z,50.1
2022-12-16T18:04:23.999Z,50.2
2022-12-16T18:09:26.950Z,50.4
2022-12-16T18:14:45.720Z,49.3
2022-12-16T18:19:48.005Z,49.3
2022-12-16T18:25:09.380Z,49.5
2022-12-16T18:30:28.110Z,50.3
2022-12-16T18:35:46.878Z,49.3
2022-12-16T18:41:05.523Z,50.3
2022-12-16T18:46:24.081Z,50.3
2022-12-16T18:51:42.640Z,49.6
2022-12-16T18:57:02.179Z,49.7
2022-12-16T19:02:21.798Z,50.4
2022-12-16T19:07:40.690Z,49.8
2022-12-16T19:12:59.226Z,50.2
2022-12-16T19:18:17.678Z,49
2022-12-16T19:23:37.439Z,50
2022-12-16T19:28:57.032Z,49.2
2022-12-16T19:34:01.707Z,49.9
2022-12-16T19:39:20.321Z,50
2022-12-16T19:44:38.831Z,50.1
2022-12-16T19:49:57.028Z,49.4
2022-12-16T19:55:18.441Z,49.3
2022-12-16T20:00:37.212Z,49.6
2022-12-16T20:05:56.780Z,50.1
2022-12-16T20:11:15.290Z,49.7
2022-12-16T20:16:34.071Z,50
2022-12-16T22:36:20.923Z,49.6
2022-12-16T22:41:39.269Z,51.4
2022-12-16T22:46:57.739Z,50.5
2022-12-16T22:52:16.524Z,50.7
2022-12-16T22:57:34.785Z,50.8
2022-12-16T23:02:54.136Z,51.6
2022-12-16T23:08:12.899Z,51.4
2022-12-16T23:13:31.410Z,52.1
2022-12-16T23:18:49.873Z,51.4
2022-12-16T23:24:08.643Z,51.5
2022-12-16T23:29:27.743Z,52.5
2022-12-16T23:34:46.779Z,51.8
2022-12-16T23:40:04.993Z,52.1
2022-12-16T23:45:23.785Z,51.8
2022-12-16T23:50:42.236Z,52.6
2022-12-16T23:56:00.442Z,51.6
